aviador You're here:

YPGV Decoded Metar

GOVE AIRPORT in AUSTRALIA
Report Time2018-01-17 18:00:00
UTC Time2018-01-17 18:16:20
Flight Rules vfr VFR
Wind220° at 02 kt
W.Decomp.*RWY 13: 0.1 kt HW 2.0 kt RCW
W.Rank220° ranks 35
Current wind is below 220° avg. (3.5)
Visibility9999 m
Phenomena:N/A
Clouds:N/A
Expected CloudBase > 400 ft AGL from Temp-Dew spread
CeilingNone
Temp26°C (ISA +11)
Dew Point25°C (94% RH)
QNH1005 hPa
Density Alt2,178 ft
Elevation180 ft
Report Wrong Elevation
Raw Report
METAR YPGV 171800Z AUTO 22002KT 9999 // NCD 26/25 Q1005=

Extra information for YPGV:More info

Metar Taf Metar & Taf Last 4 Metars F.Rules Stats Wind Profile Meteogram Temp Stats Airport Information Weather charts Add Link Nearby VenuesMetar ALERT Operation Metar Decoded Social comments